• Join FlightAware (Why Join?)
  • Login
  • US Flag 
07:14AM EDT


 

Airport Tracker/Info


-or-


 

Live Flight TrackerFlight Track Log ✈ PDT4207 ✈ 24-Feb-2014 ✈ KPHL - KBGM

Flight Track Log - Related Links

Times and Time Zones

All times are in EST time to prevent confusion due to time zone crossing. See the PDT4207 flight status page for this flight to view local times or setup timezone preferences in your user account.

Time Position Orientation Groundspeed Altitude Reporting Facility
EST Latitude Longitude Course Direction KTS MPH feet Rate Location/Type
09:57PM 39.8667 -75.2667 330° Northwest 114 131 800  Level Philadelphia TRACON
09:57PM 39.8667 -75.2667 330° Northwest 106 122 1,100 1,320 Climbing Philadelphia TRACON
09:58PM 39.8667 -75.3167 270° West 120 138 2,400 1,320 Climbing Philadelphia TRACON
09:59PM 39.9000 -75.3500 323° Northwest 120 138 3,800 1,260 Climbing Philadelphia TRACON
10:00PM 40.0635 -75.4135 323° Northwest  Level FlightAware Approximate
10:00PM 39.9333 -75.3667 339° North 142 163 5,000  Level Philadelphia TRACON
10:01PM 40.1258 -75.4758 323° Northwest  Level FlightAware Approximate
10:01PM 39.9500 -75.3833 323° Northwest 130 150 6,200  Level Philadelphia TRACON
10:02PM 40.1945 -75.5333 330° Northwest  Level FlightAware Approximate
10:02PM 39.9769 -75.3950 342° North 132 152 7,000  Level New York Center
10:03PM 40.0117 -75.4161 335° Northwest 132 152 8,300 960 Climbing New York Center
10:04PM 40.0419 -75.4372 332° Northwest 143 165 9,000 540 Climbing New York Center
10:05PM 40.0844 -75.4753 326° Northwest 162 186 9,400 360 Climbing New York Center
10:06PM 40.1208 -75.5022 330° Northwest 168 193 9,800 300 Climbing New York Center
10:07PM 40.1719 -75.5219 344° North 170 196 10,000 60 Climbing New York Center
10:08PM 40.2231 -75.5500 337° Northwest 181 208 10,000  Level New York Center
10:09PM 40.2586 -75.5958 315° West 181 208 10,000  Level New York Center
10:10PM 40.3075 -75.6239 336° Northwest 186 214 10,000  Level New York Center
10:11PM 40.3525 -75.6489 337° Northwest 186 214 10,000  Level New York Center
10:12PM 40.3969 -75.6819 330° Northwest 191 220 10,000  Level New York Center
10:13PM 40.4519 -75.7103 339° North 191 220 10,000  Level New York Center
10:14PM 40.4986 -75.7436 331° Northwest 191 220 10,000  Level New York Center
10:15PM 40.5472 -75.7719 336° Northwest 191 220 10,000  Level New York Center
10:16PM 40.5900 -75.7969 336° Northwest 191 220 10,000  Level New York Center
10:18PM 40.6869 -75.8669 331° Northwest 197 227 10,000  Level New York Center
10:19PM 40.7333 -75.9033 329° Northwest 197 227 10,000  Level New York Center
10:20PM 40.7825 -75.9261 341° North 197 227 10,000 -60 Level New York Center
10:21PM 40.8289 -75.9597 331° Northwest 184 212 9,900 -60 Descending New York Center
10:22PM 40.8753 -75.9936 331° Northwest 179 206 9,900  Level New York Center
10:23PM 40.9264 -76.0139 343° North 179 206 9,900  Level New York Center
10:24PM 40.9694 -76.0336 341° North 186 214 9,900  Level New York Center
10:25PM 41.0219 -76.0681 334° Northwest 186 214 9,900  Level New York Center
10:26PM 41.0686 -76.0992 333° Northwest 194 223 9,900  Level New York Center
10:27PM 41.1111 -76.1272 334° Northwest 194 223 9,900  Level New York Center
10:28PM 41.1556 -76.1583 332° Northwest 194 223 9,900  Level New York Center
10:29PM 41.2058 -76.1983 329° Northwest 194 223 9,900  Level New York Center
10:30PM 41.2594 -76.2108 350° North 194 223 9,900  Level New York Center
10:31PM 41.3183 -76.1936 12° North 195 224 9,900  Level New York Center
10:32PM 41.3706 -76.1950 359° North 204 235 9,900  Level New York Center
10:33PM 41.4267 -76.1967 359° North 204 235 9,900  Level New York Center
10:34PM 41.4917 -76.1881 North 204 235 9,900  Level New York Center
10:35PM 41.5481 -76.1817 North 204 235 10,000 -360 Climbing New York Center
10:36PM 41.6108 -76.1783 North 204 235 9,200 -720 Descending New York Center
10:37PM 41.6675 -76.1689 North 220 253 8,600 -900 Descending New York Center
10:38PM 41.7328 -76.1519 11° North 220 253 7,400 -1,080 Descending New York Center
10:39PM 41.7875 -76.1397 North 208 239 6,500 -960 Descending New York Center
10:40PM 41.8403 -76.1189 16° North 197 227 5,500 -1,020 Descending New York Center
10:41PM 41.8889 -76.1033 13° North 197 227 4,500 -780 Descending New York Center
10:42PM 41.9417 -76.0881 12° North 197 227 4,000 -480 Descending New York Center
10:43PM 41.9969 -76.0619 19° North 187 215 3,600 -240 Descending New York Center
10:44PM 42.0500 -76.0383 18° North 194 223 3,600  Level New York Center
10:45PM 42.0972 -76.0111 23° Northeast 200 230 3,700 -120 Climbing New York Center
10:46PM 42.1381 -75.9781 31° Northeast 185 213 3,400 -600 Descending New York Center
10:47PM 42.1664 -75.9494 37° Northeast 157 181 2,500 -660 Descending New York Center
10:48PM 42.2019 -75.9439 North 130 150 2,100 -420 Descending New York Center